sensor_id;sensor_type;location;lat;lon;timestamp;temperature;humidity
10901;DHT22;5503;53.208;10.392;2023-02-28T00:01:08;1.90;1.00
10901;DHT22;5503;53.208;10.392;2023-02-28T00:03:34;0.60;1.00
10901;DHT22;5503;53.208;10.392;2023-02-28T00:06:02;1.70;1.00
10901;DHT22;5503;53.208;10.392;2023-02-28T00:08:29;-0.30;1.00
10901;DHT22;5503;53.208;10.392;2023-02-28T00:11:01;-0.40;1.00
10901;DHT22;5503;53.208;10.392;2023-02-28T00:13:27;-0.30;1.00
10901;DHT22;5503;53.208;10.392;2023-02-28T00:16:01;-0.30;1.00
10901;DHT22;5503;53.208;10.392;2023-02-28T00:18:28;-0.30;1.00
10901;DHT22;5503;53.208;10.392;2023-02-28T00:20:56;-0.10;1.00
10901;DHT22;5503;53.208;10.392;2023-02-28T00:23:22;-0.10;1.00
10901;DHT22;5503;53.208;10.392;2023-02-28T00:25:50;0.10;1.00
10901;DHT22;5503;53.208;10.392;2023-02-28T00:28:18;0.20;1.00
10901;DHT22;5503;53.208;10.392;2023-02-28T00:30:46;0.20;1.00
10901;DHT22;5503;53.208;10.392;2023-02-28T00:33:13;-0.20;1.00
10901;DHT22;5503;53.208;10.392;2023-02-28T00:35:40;-0.40;1.00
10901;DHT22;5503;53.208;10.392;2023-02-28T00:38:07;-0.50;1.00
10901;DHT22;5503;53.208;10.392;2023-02-28T00:40:34;-0.50;1.00
10901;DHT22;5503;53.208;10.392;2023-02-28T00:43:01;-0.60;1.00
10901;DHT22;5503;53.208;10.392;2023-02-28T00:45:30;-0.60;1.00
10901;DHT22;5503;53.208;10.392;2023-02-28T00:47:57;-0.60;1.00
10901;DHT22;5503;53.208;10.392;2023-02-28T00:50:24;-0.50;1.00
10901;DHT22;5503;53.208;10.392;2023-02-28T00:52:51;-0.40;1.00
10901;DHT22;5503;53.208;10.392;2023-02-28T00:55:18;-0.20;1.00
10901;DHT22;5503;53.208;10.392;2023-02-28T00:57:45;0.00;1.00
10901;DHT22;5503;53.208;10.392;2023-02-28T01:00:12;0.00;1.00
10901;DHT22;5503;53.208;10.392;2023-02-28T01:02:41;0.00;1.00
10901;DHT22;5503;53.208;10.392;2023-02-28T01:05:08;-0.20;1.00
10901;DHT22;5503;53.208;10.392;2023-02-28T01:07:35;-0.10;1.00
10901;DHT22;5503;53.208;10.392;2023-02-28T01:10:02;0.00;1.00
10901;DHT22;5503;53.208;10.392;2023-02-28T01:12:29;0.10;1.00
10901;DHT22;5503;53.208;10.392;2023-02-28T01:14:56;0.20;1.00
10901;DHT22;5503;53.208;10.392;2023-02-28T01:17:23;-0.20;1.00
10901;DHT22;5503;53.208;10.392;2023-02-28T01:19:53;0.00;1.00
10901;DHT22;5503;53.208;10.392;2023-02-28T01:22:20;0.10;1.00
10901;DHT22;5503;53.208;10.392;2023-02-28T01:24:46;0.10;1.00
10901;DHT22;5503;53.208;10.392;2023-02-28T01:27:14;0.10;1.00
10901;DHT22;5503;53.208;10.392;2023-02-28T01:29:41;0.10;1.00
10901;DHT22;5503;53.208;10.392;2023-02-28T01:32:08;0.00;1.00
10901;DHT22;5503;53.208;10.392;2023-02-28T01:34:34;-0.30;1.00
10901;DHT22;5503;53.208;10.392;2023-02-28T01:37:03;-0.50;1.00
10901;DHT22;5503;53.208;10.392;2023-02-28T01:39:30;-0.50;1.00
10901;DHT22;5503;53.208;10.392;2023-02-28T01:41:56;-0.60;1.00
10901;DHT22;5503;53.208;10.392;2023-02-28T01:44:57;-0.50;1.00
10901;DHT22;5503;53.208;10.392;2023-02-28T01:47:25;-0.40;1.00
10901;DHT22;5503;53.208;10.392;2023-02-28T01:49:53;-0.30;1.00
10901;DHT22;5503;53.208;10.392;2023-02-28T01:52:22;-0.20;1.00
10901;DHT22;5503;53.208;10.392;2023-02-28T01:54:53;-0.20;1.00
10901;DHT22;5503;53.208;10.392;2023-02-28T01:57:24;-0.20;1.00
10901;DHT22;5503;53.208;10.392;2023-02-28T01:59:55;-0.20;1.00
10901;DHT22;5503;53.208;10.392;2023-02-28T02:02:24;-0.40;1.00
10901;DHT22;5503;53.208;10.392;2023-02-28T02:04:54;-0.40;1.00
10901;DHT22;5503;53.208;10.392;2023-02-28T02:07:23;-0.40;1.00
10901;DHT22;5503;53.208;10.392;2023-02-28T02:10:00;-0.50;1.00
10901;DHT22;5503;53.208;10.392;2023-02-28T02:12:38;-0.60;1.00
10901;DHT22;5503;53.208;10.392;2023-02-28T02:15:12;-0.90;1.00
10901;DHT22;5503;53.208;10.392;2023-02-28T02:17:45;-0.90;1.00
10901;DHT22;5503;53.208;10.392;2023-02-28T02:20:45;-0.90;1.00
10901;DHT22;5503;53.208;10.392;2023-02-28T02:23:51;-0.80;1.00
10901;DHT22;5503;53.208;10.392;2023-02-28T02:26:47;0.50;1.00
10901;DHT22;5503;53.208;10.392;2023-02-28T02:29:41;-0.60;1.00
10901;DHT22;5503;53.208;10.392;2023-02-28T02:32:40;-0.90;1.00
10901;DHT22;5503;53.208;10.392;2023-02-28T02:35:15;-1.30;1.00
10901;DHT22;5503;53.208;10.392;2023-02-28T02:37:47;-1.20;1.00
10901;DHT22;5503;53.208;10.392;2023-02-28T02:40:18;-1.10;1.00
10901;DHT22;5503;53.208;10.392;2023-02-28T02:42:51;-1.10;1.00
10901;DHT22;5503;53.208;10.392;2023-02-28T02:45:23;-1.20;1.00
10901;DHT22;5503;53.208;10.392;2023-02-28T02:47:53;-1.10;1.00
10901;DHT22;5503;53.208;10.392;2023-02-28T02:50:26;-1.20;1.00
10901;DHT22;5503;53.208;10.392;2023-02-28T02:53:00;-1.30;1.00
10901;DHT22;5503;53.208;10.392;2023-02-28T02:55:28;-1.20;1.00
10901;DHT22;5503;53.208;10.392;2023-02-28T02:57:59;-1.20;1.00
10901;DHT22;5503;53.208;10.392;2023-02-28T03:00:32;-1.10;1.00
10901;DHT22;5503;53.208;10.392;2023-02-28T03:03:01;-0.90;1.00
10901;DHT22;5503;53.208;10.392;2023-02-28T03:05:35;-1.10;1.00
10901;DHT22;5503;53.208;10.392;2023-02-28T03:08:06;-1.20;1.00
10901;DHT22;5503;53.208;10.392;2023-02-28T03:10:36;-1.40;1.00
10901;DHT22;5503;53.208;10.392;2023-02-28T03:13:35;-1.30;1.00
10901;DHT22;5503;53.208;10.392;2023-02-28T03:19:18;-1.10;1.00
10901;DHT22;5503;53.208;10.392;2023-02-28T03:21:56;-0.90;1.00
10901;DHT22;5503;53.208;10.392;2023-02-28T03:24:29;-0.90;1.00
10901;DHT22;5503;53.208;10.392;2023-02-28T03:27:04;-0.90;1.00
10901;DHT22;5503;53.208;10.392;2023-02-28T03:29:35;-1.20;1.00
10901;DHT22;5503;53.208;10.392;2023-02-28T03:32:07;-1.10;1.00
10901;DHT22;5503;53.208;10.392;2023-02-28T03:34:42;-1.00;1.00
10901;DHT22;5503;53.208;10.392;2023-02-28T03:37:16;-1.00;1.00
10901;DHT22;5503;53.208;10.392;2023-02-28T03:39:49;-0.90;1.00
10901;DHT22;5503;53.208;10.392;2023-02-28T03:42:20;-1.00;1.00
10901;DHT22;5503;53.208;10.392;2023-02-28T03:44:50;-1.10;1.00
10901;DHT22;5503;53.208;10.392;2023-02-28T03:47:23;-1.30;1.00
10901;DHT22;5503;53.208;10.392;2023-02-28T03:49:53;-1.10;1.00
10901;DHT22;5503;53.208;10.392;2023-02-28T03:52:27;-1.30;1.00
10901;DHT22;5503;53.208;10.392;2023-02-28T03:54:58;-1.50;1.00
10901;DHT22;5503;53.208;10.392;2023-02-28T03:57:33;-1.60;1.00
10901;DHT22;5503;53.208;10.392;2023-02-28T04:00:07;-1.50;1.00
10901;DHT22;5503;53.208;10.392;2023-02-28T04:02:36;-1.50;1.00
10901;DHT22;5503;53.208;10.392;2023-02-28T04:05:04;-1.60;1.00
10901;DHT22;5503;53.208;10.392;2023-02-28T04:07:32;-1.60;1.00
10901;DHT22;5503;53.208;10.392;2023-02-28T04:09:59;-1.70;1.00
10901;DHT22;5503;53.208;10.392;2023-02-28T04:12:26;-1.80;1.00
10901;DHT22;5503;53.208;10.392;2023-02-28T04:14:53;-1.90;1.00
10901;DHT22;5503;53.208;10.392;2023-02-28T04:17:20;-4.20;1.00
10901;DHT22;5503;53.208;10.392;2023-02-28T04:19:47;-1.50;1.00
10901;DHT22;5503;53.208;10.392;2023-02-28T04:22:15;-1.40;1.00
10901;DHT22;5503;53.208;10.392;2023-02-28T04:24:44;-1.30;1.00
10901;DHT22;5503;53.208;10.392;2023-02-28T04:27:11;-1.50;1.00
10901;DHT22;5503;53.208;10.392;2023-02-28T04:29:41;-1.90;1.00
10901;DHT22;5503;53.208;10.392;2023-02-28T04:32:10;-2.00;1.00
10901;DHT22;5503;53.208;10.392;2023-02-28T04:34:37;-2.10;1.00
10901;DHT22;5503;53.208;10.392;2023-02-28T04:37:04;-2.10;1.00
10901;DHT22;5503;53.208;10.392;2023-02-28T04:39:34;-1.90;1.00
10901;DHT22;5503;53.208;10.392;2023-02-28T04:42:03;-1.60;1.00
10901;DHT22;5503;53.208;10.392;2023-02-28T04:44:30;-1.50;1.00
10901;DHT22;5503;53.208;10.392;2023-02-28T04:46:57;-1.50;1.00
10901;DHT22;5503;53.208;10.392;2023-02-28T04:49:24;-1.40;1.00
10901;DHT22;5503;53.208;10.392;2023-02-28T04:51:51;-1.30;1.00
10901;DHT22;5503;53.208;10.392;2023-02-28T04:54:18;-1.80;1.00
10901;DHT22;5503;53.208;10.392;2023-02-28T04:56:45;-2.00;1.00
10901;DHT22;5503;53.208;10.392;2023-02-28T04:59:15;-2.10;1.00
10901;DHT22;5503;53.208;10.392;2023-02-28T05:01:46;-1.90;1.00
10901;DHT22;5503;53.208;10.392;2023-02-28T05:04:13;-2.10;1.00
10901;DHT22;5503;53.208;10.392;2023-02-28T05:06:40;-1.70;1.00
10901;DHT22;5503;53.208;10.392;2023-02-28T05:09:07;-1.70;1.00
10901;DHT22;5503;53.208;10.392;2023-02-28T05:11:37;-1.70;1.00
10901;DHT22;5503;53.208;10.392;2023-02-28T05:14:06;-1.60;1.00
10901;DHT22;5503;53.208;10.392;2023-02-28T05:16:35;-1.60;1.00
10901;DHT22;5503;53.208;10.392;2023-02-28T05:19:02;-1.60;1.00
10901;DHT22;5503;53.208;10.392;2023-02-28T05:21:31;-1.60;1.00
10901;DHT22;5503;53.208;10.392;2023-02-28T05:23:59;-1.60;1.00
10901;DHT22;5503;53.208;10.392;2023-02-28T05:26:27;-1.50;1.00
10901;DHT22;5503;53.208;10.392;2023-02-28T05:28:54;-1.50;1.00
10901;DHT22;5503;53.208;10.392;2023-02-28T05:31:22;-1.40;1.00
10901;DHT22;5503;53.208;10.392;2023-02-28T05:33:50;-1.60;1.00
10901;DHT22;5503;53.208;10.392;2023-02-28T05:36:17;-1.50;1.00
10901;DHT22;5503;53.208;10.392;2023-02-28T05:38:46;-1.50;1.00
10901;DHT22;5503;53.208;10.392;2023-02-28T05:41:14;-1.60;1.00
10901;DHT22;5503;53.208;10.392;2023-02-28T05:43:41;-1.70;1.00
10901;DHT22;5503;53.208;10.392;2023-02-28T05:46:10;-2.00;1.00
10901;DHT22;5503;53.208;10.392;2023-02-28T05:48:39;-2.20;1.00
10901;DHT22;5503;53.208;10.392;2023-02-28T05:51:09;-0.60;1.00
10901;DHT22;5503;53.208;10.392;2023-02-28T05:53:36;-2.20;1.00
10901;DHT22;5503;53.208;10.392;2023-02-28T05:56:03;-2.30;1.00
10901;DHT22;5503;53.208;10.392;2023-02-28T05:58:31;-2.50;1.00
10901;DHT22;5503;53.208;10.392;2023-02-28T06:00:58;-2.40;1.00
10901;DHT22;5503;53.208;10.392;2023-02-28T06:03:26;-2.30;1.00
10901;DHT22;5503;53.208;10.392;2023-02-28T06:05:53;-2.40;1.00
10901;DHT22;5503;53.208;10.392;2023-02-28T06:08:21;-2.30;1.00
10901;DHT22;5503;53.208;10.392;2023-02-28T06:10:48;-2.10;1.00
10901;DHT22;5503;53.208;10.392;2023-02-28T06:13:15;-2.00;1.00
10901;DHT22;5503;53.208;10.392;2023-02-28T06:15:42;-0.10;1.00
10901;DHT22;5503;53.208;10.392;2023-02-28T06:18:09;-1.80;1.00
10901;DHT22;5503;53.208;10.392;2023-02-28T06:20:36;-1.90;1.00
10901;DHT22;5503;53.208;10.392;2023-02-28T06:23:03;-1.90;1.00
10901;DHT22;5503;53.208;10.392;2023-02-28T06:25:32;-2.30;1.00
10901;DHT22;5503;53.208;10.392;2023-02-28T06:27:59;-2.30;1.00
10901;DHT22;5503;53.208;10.392;2023-02-28T06:30:26;-2.30;1.00
10901;DHT22;5503;53.208;10.392;2023-02-28T06:32:56;-2.10;1.00
10901;DHT22;5503;53.208;10.392;2023-02-28T06:35:23;-2.20;1.00
10901;DHT22;5503;53.208;10.392;2023-02-28T06:37:50;-2.40;1.00
10901;DHT22;5503;53.208;10.392;2023-02-28T06:40:17;-2.50;1.00
10901;DHT22;5503;53.208;10.392;2023-02-28T06:42:46;-2.40;1.00
10901;DHT22;5503;53.208;10.392;2023-02-28T06:45:13;-2.50;1.00
10901;DHT22;5503;53.208;10.392;2023-02-28T06:47:40;-2.50;1.00
10901;DHT22;5503;53.208;10.392;2023-02-28T06:50:09;-2.30;1.00
10901;DHT22;5503;53.208;10.392;2023-02-28T06:52:37;-2.00;1.00
10901;DHT22;5503;53.208;10.392;2023-02-28T06:55:05;-1.80;1.00
10901;DHT22;5503;53.208;10.392;2023-02-28T06:57:34;-1.70;1.00
10901;DHT22;5503;53.208;10.392;2023-02-28T07:00:05;-1.60;1.00
10901;DHT22;5503;53.208;10.392;2023-02-28T07:02:33;-1.70;1.00
10901;DHT22;5503;53.208;10.392;2023-02-28T07:05:00;-1.60;1.00
10901;DHT22;5503;53.208;10.392;2023-02-28T07:07:27;-1.40;1.00
10901;DHT22;5503;53.208;10.392;2023-02-28T07:09:54;-1.30;1.00
10901;DHT22;5503;53.208;10.392;2023-02-28T07:12:21;-1.20;1.00
10901;DHT22;5503;53.208;10.392;2023-02-28T07:14:48;-1.20;1.00
10901;DHT22;5503;53.208;10.392;2023-02-28T07:17:16;-1.20;1.00
10901;DHT22;5503;53.208;10.392;2023-02-28T07:19:43;0.10;1.00
10901;DHT22;5503;53.208;10.392;2023-02-28T07:22:10;-1.30;1.00
10901;DHT22;5503;53.208;10.392;2023-02-28T07:24:37;-1.30;1.00
10901;DHT22;5503;53.208;10.392;2023-02-28T07:27:04;-1.30;1.00
10901;DHT22;5503;53.208;10.392;2023-02-28T07:29:32;-1.10;1.00
10901;DHT22;5503;53.208;10.392;2023-02-28T07:31:59;-0.90;1.00
10901;DHT22;5503;53.208;10.392;2023-02-28T07:34:27;-0.60;1.00
10901;DHT22;5503;53.208;10.392;2023-02-28T07:36:54;-0.60;1.00
10901;DHT22;5503;53.208;10.392;2023-02-28T07:39:22;-0.50;1.00
10901;DHT22;5503;53.208;10.392;2023-02-28T07:41:49;-0.40;1.00
10901;DHT22;5503;53.208;10.392;2023-02-28T07:44:16;-0.30;1.00
10901;DHT22;5503;53.208;10.392;2023-02-28T07:46:43;-0.20;1.00
10901;DHT22;5503;53.208;10.392;2023-02-28T07:49:10;0.00;1.00
10901;DHT22;5503;53.208;10.392;2023-02-28T07:51:38;0.20;1.00
10901;DHT22;5503;53.208;10.392;2023-02-28T07:54:05;0.40;1.00
10901;DHT22;5503;53.208;10.392;2023-02-28T07:56:33;0.50;1.00
10901;DHT22;5503;53.208;10.392;2023-02-28T07:59:00;0.50;1.00
10901;DHT22;5503;53.208;10.392;2023-02-28T08:01:27;0.60;1.00
10901;DHT22;5503;53.208;10.392;2023-02-28T08:03:54;0.80;1.00
10901;DHT22;5503;53.208;10.392;2023-02-28T08:06:25;-0.80;1.00
10901;DHT22;5503;53.208;10.392;2023-02-28T08:08:53;1.10;1.00
10901;DHT22;5503;53.208;10.392;2023-02-28T08:11:21;1.20;1.00
10901;DHT22;5503;53.208;10.392;2023-02-28T08:13:48;1.30;1.00
10901;DHT22;5503;53.208;10.392;2023-02-28T08:16:16;1.40;1.00
10901;DHT22;5503;53.208;10.392;2023-02-28T08:18:47;1.60;1.00
10901;DHT22;5503;53.208;10.392;2023-02-28T08:21:14;1.60;1.00
10901;DHT22;5503;53.208;10.392;2023-02-28T08:23:41;1.70;1.00
10901;DHT22;5503;53.208;10.392;2023-02-28T08:26:10;1.80;1.00
10901;DHT22;5503;53.208;10.392;2023-02-28T08:28:37;1.90;1.00
10901;DHT22;5503;53.208;10.392;2023-02-28T08:31:08;2.00;1.00
10901;DHT22;5503;53.208;10.392;2023-02-28T08:33:36;1.80;1.00
10901;DHT22;5503;53.208;10.392;2023-02-28T08:36:05;3.50;1.00
10901;DHT22;5503;53.208;10.392;2023-02-28T08:38:32;2.00;1.00
10901;DHT22;5503;53.208;10.392;2023-02-28T08:41:00;2.20;1.00
10901;DHT22;5503;53.208;10.392;2023-02-28T08:43:29;2.40;1.00
10901;DHT22;5503;53.208;10.392;2023-02-28T08:45:56;2.60;1.00
10901;DHT22;5503;53.208;10.392;2023-02-28T08:48:23;2.80;1.00
10901;DHT22;5503;53.208;10.392;2023-02-28T08:50:57;3.00;1.00
10901;DHT22;5503;53.208;10.392;2023-02-28T08:53:24;3.30;1.00
10901;DHT22;5503;53.208;10.392;2023-02-28T08:55:58;3.40;1.00
10901;DHT22;5503;53.208;10.392;2023-02-28T08:58:26;3.60;1.00
10901;DHT22;5503;53.208;10.392;2023-02-28T09:00:54;3.70;1.00
10901;DHT22;5503;53.208;10.392;2023-02-28T09:03:22;3.80;1.00
10901;DHT22;5503;53.208;10.392;2023-02-28T09:05:55;4.00;1.00
10901;DHT22;5503;53.208;10.392;2023-02-28T09:08:22;4.20;1.00
10901;DHT22;5503;53.208;10.392;2023-02-28T09:10:49;4.20;1.00
10901;DHT22;5503;53.208;10.392;2023-02-28T09:13:16;4.20;1.00
10901;DHT22;5503;53.208;10.392;2023-02-28T09:15:43;4.40;1.00
10901;DHT22;5503;53.208;10.392;2023-02-28T09:18:12;5.60;1.00
10901;DHT22;5503;53.208;10.392;2023-02-28T09:20:39;4.60;1.00
10901;DHT22;5503;53.208;10.392;2023-02-28T09:23:07;6.00;1.00
10901;DHT22;5503;53.208;10.392;2023-02-28T09:25:35;4.90;1.00
10901;DHT22;5503;53.208;10.392;2023-02-28T09:28:02;5.10;1.00
10901;DHT22;5503;53.208;10.392;2023-02-28T09:30:30;5.40;1.00
10901;DHT22;5503;53.208;10.392;2023-02-28T09:33:00;5.70;1.00
10901;DHT22;5503;53.208;10.392;2023-02-28T09:35:28;5.90;1.00
10901;DHT22;5503;53.208;10.392;2023-02-28T09:37:56;6.00;1.00
10901;DHT22;5503;53.208;10.392;2023-02-28T09:40:25;5.90;1.00
10901;DHT22;5503;53.208;10.392;2023-02-28T09:42:54;5.80;1.00
10901;DHT22;5503;53.208;10.392;2023-02-28T09:45:24;5.80;1.00
10901;DHT22;5503;53.208;10.392;2023-02-28T09:47:56;5.90;1.00
10901;DHT22;5503;53.208;10.392;2023-02-28T09:50:33;5.70;1.00
10901;DHT22;5503;53.208;10.392;2023-02-28T09:53:06;5.80;1.00
10901;DHT22;5503;53.208;10.392;2023-02-28T09:55:40;5.50;1.00
10901;DHT22;5503;53.208;10.392;2023-02-28T09:58:17;5.60;1.00
10901;DHT22;5503;53.208;10.392;2023-02-28T10:00:53;5.70;1.00
10901;DHT22;5503;53.208;10.392;2023-02-28T10:03:29;5.60;1.00
10901;DHT22;5503;53.208;10.392;2023-02-28T10:06:05;5.80;1.00
10901;DHT22;5503;53.208;10.392;2023-02-28T10:08:37;5.80;1.00
10901;DHT22;5503;53.208;10.392;2023-02-28T10:11:10;5.80;1.00
10901;DHT22;5503;53.208;10.392;2023-02-28T10:13:50;5.60;1.00
10901;DHT22;5503;53.208;10.392;2023-02-28T10:16:24;5.90;1.00
10901;DHT22;5503;53.208;10.392;2023-02-28T10:18:54;6.30;1.00
10901;DHT22;5503;53.208;10.392;2023-02-28T10:21:28;6.80;1.00
10901;DHT22;5503;53.208;10.392;2023-02-28T10:24:02;7.40;1.00
10901;DHT22;5503;53.208;10.392;2023-02-28T10:26:31;7.70;1.00
10901;DHT22;5503;53.208;10.392;2023-02-28T10:28:59;6.80;1.00
10901;DHT22;5503;53.208;10.392;2023-02-28T10:31:26;7.00;1.00
10901;DHT22;5503;53.208;10.392;2023-02-28T10:33:55;7.30;1.00
10901;DHT22;5503;53.208;10.392;2023-02-28T10:36:22;7.40;1.00
10901;DHT22;5503;53.208;10.392;2023-02-28T10:38:51;7.60;1.00
10901;DHT22;5503;53.208;10.392;2023-02-28T10:41:27;7.70;1.00
10901;DHT22;5503;53.208;10.392;2023-02-28T10:44:13;8.00;1.00
10901;DHT22;5503;53.208;10.392;2023-02-28T10:46:42;7.80;1.00
10901;DHT22;5503;53.208;10.392;2023-02-28T10:49:15;8.20;1.00
10901;DHT22;5503;53.208;10.392;2023-02-28T10:51:45;8.10;1.00
10901;DHT22;5503;53.208;10.392;2023-02-28T10:54:19;8.00;1.00
10901;DHT22;5503;53.208;10.392;2023-02-28T10:57:06;8.20;1.00
10901;DHT22;5503;53.208;10.392;2023-02-28T10:59:38;8.60;1.00
10901;DHT22;5503;53.208;10.392;2023-02-28T11:02:30;8.50;1.00
10901;DHT22;5503;53.208;10.392;2023-02-28T11:04:57;8.00;1.00
10901;DHT22;5503;53.208;10.392;2023-02-28T11:07:25;7.80;1.00
10901;DHT22;5503;53.208;10.392;2023-02-28T11:09:56;7.40;1.00
10901;DHT22;5503;53.208;10.392;2023-02-28T11:12:26;7.20;1.00
10901;DHT22;5503;53.208;10.392;2023-02-28T11:14:55;7.50;1.00
10901;DHT22;5503;53.208;10.392;2023-02-28T11:17:24;8.00;1.00
10901;DHT22;5503;53.208;10.392;2023-02-28T11:19:54;8.50;1.00
10901;DHT22;5503;53.208;10.392;2023-02-28T11:22:24;8.90;1.00
10901;DHT22;5503;53.208;10.392;2023-02-28T11:24:57;9.10;1.00
10901;DHT22;5503;53.208;10.392;2023-02-28T11:27:40;9.30;1.00
10901;DHT22;5503;53.208;10.392;2023-02-28T11:30:26;9.40;1.00
10901;DHT22;5503;53.208;10.392;2023-02-28T11:32:53;9.70;1.00
10901;DHT22;5503;53.208;10.392;2023-02-28T11:35:24;9.40;1.00
10901;DHT22;5503;53.208;10.392;2023-02-28T11:37:52;9.30;1.00
10901;DHT22;5503;53.208;10.392;2023-02-28T11:40:36;9.30;1.00
10901;DHT22;5503;53.208;10.392;2023-02-28T11:43:17;9.20;1.00
10901;DHT22;5503;53.208;10.392;2023-02-28T11:45:59;9.30;1.00
10901;DHT22;5503;53.208;10.392;2023-02-28T11:48:33;9.40;1.00
10901;DHT22;5503;53.208;10.392;2023-02-28T11:51:13;9.50;1.00
10901;DHT22;5503;53.208;10.392;2023-02-28T11:54:02;9.70;1.00
10901;DHT22;5503;53.208;10.392;2023-02-28T11:56:37;9.80;1.00
10901;DHT22;5503;53.208;10.392;2023-02-28T11:59:22;9.50;1.00
10901;DHT22;5503;53.208;10.392;2023-02-28T12:02:15;9.30;1.00
10901;DHT22;5503;53.208;10.392;2023-02-28T12:04:52;9.40;1.00
10901;DHT22;5503;53.208;10.392;2023-02-28T12:07:28;9.10;1.00
10901;DHT22;5503;53.208;10.392;2023-02-28T12:10:04;8.50;1.00
10901;DHT22;5503;53.208;10.392;2023-02-28T12:12:48;8.70;1.00
10901;DHT22;5503;53.208;10.392;2023-02-28T12:18:42;8.40;1.00
10901;DHT22;5503;53.208;10.392;2023-02-28T12:21:20;8.20;1.00
10901;DHT22;5503;53.208;10.392;2023-02-28T12:24:06;9.30;1.00
10901;DHT22;5503;53.208;10.392;2023-02-28T12:26:40;9.80;1.00
10901;DHT22;5503;53.208;10.392;2023-02-28T12:29:14;9.40;1.00
10901;DHT22;5503;53.208;10.392;2023-02-28T12:31:46;9.40;1.00
10901;DHT22;5503;53.208;10.392;2023-02-28T12:34:18;9.70;1.00
10901;DHT22;5503;53.208;10.392;2023-02-28T12:36:47;9.60;1.00
10901;DHT22;5503;53.208;10.392;2023-02-28T12:39:18;9.90;1.00
10901;DHT22;5503;53.208;10.392;2023-02-28T12:41:51;10.40;1.00
10901;DHT22;5503;53.208;10.392;2023-02-28T12:44:23;10.50;1.00
10901;DHT22;5503;53.208;10.392;2023-02-28T12:46:56;10.00;1.00
10901;DHT22;5503;53.208;10.392;2023-02-28T12:49:28;9.80;1.00
10901;DHT22;5503;53.208;10.392;2023-02-28T12:51:58;7.50;1.00
10901;DHT22;5503;53.208;10.392;2023-02-28T12:54:32;8.50;1.00
10901;DHT22;5503;53.208;10.392;2023-02-28T12:57:07;8.20;1.00
10901;DHT22;5503;53.208;10.392;2023-02-28T12:59:40;8.00;1.00
10901;DHT22;5503;53.208;10.392;2023-02-28T13:02:51;8.10;1.00
10901;DHT22;5503;53.208;10.392;2023-02-28T13:05:41;8.10;1.00
10901;DHT22;5503;53.208;10.392;2023-02-28T13:10:57;8.20;1.00
10901;DHT22;5503;53.208;10.392;2023-02-28T13:13:26;8.60;1.00
10901;DHT22;5503;53.208;10.392;2023-02-28T13:16:02;8.60;1.00
10901;DHT22;5503;53.208;10.392;2023-02-28T13:18:35;9.20;1.00
10901;DHT22;5503;53.208;10.392;2023-02-28T13:21:06;9.80;1.00
10901;DHT22;5503;53.208;10.392;2023-02-28T13:23:59;10.10;1.00
10901;DHT22;5503;53.208;10.392;2023-02-28T13:29:32;10.40;1.00
10901;DHT22;5503;53.208;10.392;2023-02-28T13:32:31;11.10;1.00
10901;DHT22;5503;53.208;10.392;2023-02-28T13:35:38;11.30;1.00
10901;DHT22;5503;53.208;10.392;2023-02-28T13:38:17;11.60;1.00
10901;DHT22;5503;53.208;10.392;2023-02-28T13:40:48;11.80;1.00
10901;DHT22;5503;53.208;10.392;2023-02-28T13:43:17;12.30;1.00
10901;DHT22;5503;53.208;10.392;2023-02-28T13:46:06;12.10;1.00
10901;DHT22;5503;53.208;10.392;2023-02-28T13:48:36;12.00;1.00
10901;DHT22;5503;53.208;10.392;2023-02-28T13:54:15;10.80;1.00
10901;DHT22;5503;53.208;10.392;2023-02-28T13:56:48;11.40;1.00
10901;DHT22;5503;53.208;10.392;2023-02-28T13:59:26;10.80;1.00
10901;DHT22;5503;53.208;10.392;2023-02-28T14:02:10;10.00;1.00
10901;DHT22;5503;53.208;10.392;2023-02-28T14:04:54;9.90;1.00
10901;DHT22;5503;53.208;10.392;2023-02-28T14:07:25;9.60;1.00
10901;DHT22;5503;53.208;10.392;2023-02-28T14:10:01;10.10;1.00
10901;DHT22;5503;53.208;10.392;2023-02-28T14:13:00;10.30;1.00
10901;DHT22;5503;53.208;10.392;2023-02-28T14:15:49;9.90;1.00
10901;DHT22;5503;53.208;10.392;2023-02-28T14:18:27;9.90;1.00
10901;DHT22;5503;53.208;10.392;2023-02-28T14:21:01;9.50;1.00
10901;DHT22;5503;53.208;10.392;2023-02-28T14:23:49;9.10;1.00
10901;DHT22;5503;53.208;10.392;2023-02-28T14:26:31;9.20;1.00
10901;DHT22;5503;53.208;10.392;2023-02-28T14:29:17;9.00;1.00
10901;DHT22;5503;53.208;10.392;2023-02-28T14:31:57;9.00;1.00
10901;DHT22;5503;53.208;10.392;2023-02-28T14:57:03;9.10;1.00
10901;DHT22;5503;53.208;10.392;2023-02-28T14:59:35;8.30;1.00
10901;DHT22;5503;53.208;10.392;2023-02-28T15:02:20;9.90;1.00
10901;DHT22;5503;53.208;10.392;2023-02-28T15:04:55;9.40;1.00
10901;DHT22;5503;53.208;10.392;2023-02-28T15:07:24;9.60;1.00
10901;DHT22;5503;53.208;10.392;2023-02-28T15:10:18;9.60;1.00
10901;DHT22;5503;53.208;10.392;2023-02-28T15:12:51;8.80;1.00
10901;DHT22;5503;53.208;10.392;2023-02-28T15:15:20;8.80;1.00
10901;DHT22;5503;53.208;10.392;2023-02-28T15:17:50;8.80;1.00
10901;DHT22;5503;53.208;10.392;2023-02-28T15:20:19;9.80;1.00
10901;DHT22;5503;53.208;10.392;2023-02-28T15:22:50;8.50;1.00
10901;DHT22;5503;53.208;10.392;2023-02-28T15:25:21;6.60;1.00
10901;DHT22;5503;53.208;10.392;2023-02-28T15:27:50;8.40;1.00
10901;DHT22;5503;53.208;10.392;2023-02-28T15:30:21;8.20;1.00
10901;DHT22;5503;53.208;10.392;2023-02-28T15:33:07;8.30;1.00
10901;DHT22;5503;53.208;10.392;2023-02-28T15:35:44;8.40;1.00
10901;DHT22;5503;53.208;10.392;2023-02-28T15:38:17;8.60;1.00
10901;DHT22;5503;53.208;10.392;2023-02-28T15:40:46;9.50;1.00
10901;DHT22;5503;53.208;10.392;2023-02-28T15:43:23;8.30;1.00
10901;DHT22;5503;53.208;10.392;2023-02-28T15:45:53;8.00;1.00
10901;DHT22;5503;53.208;10.392;2023-02-28T15:48:24;8.00;1.00
10901;DHT22;5503;53.208;10.392;2023-02-28T15:50:55;7.90;1.00
10901;DHT22;5503;53.208;10.392;2023-02-28T15:53:27;7.80;1.00
10901;DHT22;5503;53.208;10.392;2023-02-28T15:56:00;7.70;1.00
10901;DHT22;5503;53.208;10.392;2023-02-28T15:58:27;7.60;1.00
10901;DHT22;5503;53.208;10.392;2023-02-28T16:01:16;8.90;1.00
10901;DHT22;5503;53.208;10.392;2023-02-28T16:03:46;7.50;1.00
10901;DHT22;5503;53.208;10.392;2023-02-28T16:09:11;7.30;1.00
10901;DHT22;5503;53.208;10.392;2023-02-28T16:11:42;7.20;1.00
10901;DHT22;5503;53.208;10.392;2023-02-28T16:14:16;7.20;1.00
10901;DHT22;5503;53.208;10.392;2023-02-28T16:16:44;7.30;1.00
10901;DHT22;5503;53.208;10.392;2023-02-28T16:19:12;7.30;1.00
10901;DHT22;5503;53.208;10.392;2023-02-28T16:21:39;7.40;1.00
10901;DHT22;5503;53.208;10.392;2023-02-28T16:24:07;8.80;1.00
10901;DHT22;5503;53.208;10.392;2023-02-28T16:26:36;7.30;1.00
10901;DHT22;5503;53.208;10.392;2023-02-28T16:29:05;7.30;1.00
10901;DHT22;5503;53.208;10.392;2023-02-28T16:31:35;7.30;1.00
10901;DHT22;5503;53.208;10.392;2023-02-28T16:34:04;7.30;1.00
10901;DHT22;5503;53.208;10.392;2023-02-28T16:36:31;7.30;1.00
10901;DHT22;5503;53.208;10.392;2023-02-28T16:38:58;7.30;1.00
10901;DHT22;5503;53.208;10.392;2023-02-28T16:41:26;7.30;1.00
10901;DHT22;5503;53.208;10.392;2023-02-28T16:43:57;7.30;1.00
10901;DHT22;5503;53.208;10.392;2023-02-28T16:46:29;8.70;1.00
10901;DHT22;5503;53.208;10.392;2023-02-28T16:48:57;7.20;1.00
10901;DHT22;5503;53.208;10.392;2023-02-28T16:51:24;8.40;1.00
10901;DHT22;5503;53.208;10.392;2023-02-28T16:53:51;6.60;1.00
10901;DHT22;5503;53.208;10.392;2023-02-28T16:56:19;6.50;1.00
10901;DHT22;5503;53.208;10.392;2023-02-28T16:58:48;6.90;1.00
10901;DHT22;5503;53.208;10.392;2023-02-28T17:01:17;6.50;1.00
10901;DHT22;5503;53.208;10.392;2023-02-28T17:03:47;6.50;1.00